sensor_id;sensor_type;location;lat;lon;timestamp;P1;durP1;ratioP1;P2;durP2;ratioP2
18190;SDS011;47004;51.366;12.348;2024-03-17T00:01:43;10.67;;;4.07;;
18190;SDS011;47004;51.366;12.348;2024-03-17T00:03:47;8.33;;;3.70;;
18190;SDS011;47004;51.366;12.348;2024-03-17T00:05:56;8.30;;;4.20;;
18190;SDS011;47004;51.366;12.348;2024-03-17T00:07:57;7.50;;;3.33;;
18190;SDS011;47004;51.366;12.348;2024-03-17T00:09:59;10.33;;;4.30;;
18190;SDS011;47004;51.366;12.348;2024-03-17T00:12:00;10.93;;;3.87;;
18190;SDS011;47004;51.366;12.348;2024-03-17T00:14:03;9.27;;;4.03;;
18190;SDS011;47004;51.366;12.348;2024-03-17T00:16:04;9.47;;;4.30;;
18190;SDS011;47004;51.366;12.348;2024-03-17T00:18:07;10.03;;;4.73;;
18190;SDS011;47004;51.366;12.348;2024-03-17T00:20:09;6.60;;;4.00;;
18190;SDS011;47004;51.366;12.348;2024-03-17T00:22:20;12.67;;;4.50;;
18190;SDS011;47004;51.366;12.348;2024-03-17T00:24:21;9.37;;;4.17;;
18190;SDS011;47004;51.366;12.348;2024-03-17T00:26:24;7.53;;;3.90;;
18190;SDS011;47004;51.366;12.348;2024-03-17T00:28:25;11.53;;;4.13;;
18190;SDS011;47004;51.366;12.348;2024-03-17T00:30:27;7.73;;;3.90;;
18190;SDS011;47004;51.366;12.348;2024-03-17T00:32:28;7.13;;;4.07;;
18190;SDS011;47004;51.366;12.348;2024-03-17T00:34:30;8.30;;;3.80;;
18190;SDS011;47004;51.366;12.348;2024-03-17T00:36:31;9.33;;;3.97;;
18190;SDS011;47004;51.366;12.348;2024-03-17T00:38:34;8.40;;;4.23;;
18190;SDS011;47004;51.366;12.348;2024-03-17T00:40:36;7.60;;;3.80;;
18190;SDS011;47004;51.366;12.348;2024-03-17T00:42:38;9.57;;;4.77;;
18190;SDS011;47004;51.366;12.348;2024-03-17T00:44:38;6.83;;;4.23;;
18190;SDS011;47004;51.366;12.348;2024-03-17T00:46:43;8.00;;;4.57;;
18190;SDS011;47004;51.366;12.348;2024-03-17T00:48:46;10.10;;;4.83;;
18190;SDS011;47004;51.366;12.348;2024-03-17T00:50:55;9.30;;;4.63;;
18190;SDS011;47004;51.366;12.348;2024-03-17T00:52:56;11.77;;;4.87;;
18190;SDS011;47004;51.366;12.348;2024-03-17T00:54:59;10.77;;;4.90;;
18190;SDS011;47004;51.366;12.348;2024-03-17T00:57:04;10.67;;;4.73;;
18190;SDS011;47004;51.366;12.348;2024-03-17T00:59:06;9.27;;;4.53;;
18190;SDS011;47004;51.366;12.348;2024-03-17T01:01:07;9.00;;;4.03;;
18190;SDS011;47004;51.366;12.348;2024-03-17T01:03:10;10.23;;;4.23;;
18190;SDS011;47004;51.366;12.348;2024-03-17T01:05:11;9.93;;;4.43;;
18190;SDS011;47004;51.366;12.348;2024-03-17T01:07:13;9.33;;;4.47;;
18190;SDS011;47004;51.366;12.348;2024-03-17T01:09:14;12.47;;;4.60;;
18190;SDS011;47004;51.366;12.348;2024-03-17T01:11:17;11.43;;;4.83;;
18190;SDS011;47004;51.366;12.348;2024-03-17T01:13:19;12.03;;;5.70;;
18190;SDS011;47004;51.366;12.348;2024-03-17T01:15:21;10.27;;;5.27;;
18190;SDS011;47004;51.366;12.348;2024-03-17T01:17:21;7.83;;;4.57;;
18190;SDS011;47004;51.366;12.348;2024-03-17T01:19:24;10.80;;;5.37;;
18190;SDS011;47004;51.366;12.348;2024-03-17T01:21:25;11.10;;;5.43;;
18190;SDS011;47004;51.366;12.348;2024-03-17T01:23:27;11.07;;;5.37;;
18190;SDS011;47004;51.366;12.348;2024-03-17T01:25:28;11.43;;;5.30;;
18190;SDS011;47004;51.366;12.348;2024-03-17T01:27:32;13.07;;;5.40;;
18190;SDS011;47004;51.366;12.348;2024-03-17T01:29:33;13.20;;;4.83;;
18190;SDS011;47004;51.366;12.348;2024-03-17T01:31:37;10.07;;;4.90;;
18190;SDS011;47004;51.366;12.348;2024-03-17T01:33:38;10.93;;;4.90;;
18190;SDS011;47004;51.366;12.348;2024-03-17T01:35:44;10.13;;;4.77;;
18190;SDS011;47004;51.366;12.348;2024-03-17T01:37:45;11.97;;;4.70;;
18190;SDS011;47004;51.366;12.348;2024-03-17T01:39:47;11.07;;;4.63;;
18190;SDS011;47004;51.366;12.348;2024-03-17T01:41:52;10.27;;;4.80;;
18190;SDS011;47004;51.366;12.348;2024-03-17T01:43:55;10.77;;;4.87;;
18190;SDS011;47004;51.366;12.348;2024-03-17T01:45:57;11.13;;;4.07;;
18190;SDS011;47004;51.366;12.348;2024-03-17T01:48:00;10.33;;;4.00;;
18190;SDS011;47004;51.366;12.348;2024-03-17T01:50:03;7.07;;;3.83;;
18190;SDS011;47004;51.366;12.348;2024-03-17T01:52:05;9.80;;;3.83;;
18190;SDS011;47004;51.366;12.348;2024-03-17T01:54:06;9.00;;;4.23;;
18190;SDS011;47004;51.366;12.348;2024-03-17T01:56:12;13.70;;;4.30;;
18190;SDS011;47004;51.366;12.348;2024-03-17T01:58:16;8.13;;;3.90;;
18190;SDS011;47004;51.366;12.348;2024-03-17T02:00:22;7.77;;;3.60;;
18190;SDS011;47004;51.366;12.348;2024-03-17T02:02:23;8.27;;;4.10;;
18190;SDS011;47004;51.366;12.348;2024-03-17T02:04:28;9.93;;;3.50;;
18190;SDS011;47004;51.366;12.348;2024-03-17T02:06:29;11.47;;;3.93;;
18190;SDS011;47004;51.366;12.348;2024-03-17T02:08:45;10.50;;;4.57;;
18190;SDS011;47004;51.366;12.348;2024-03-17T02:10:49;7.57;;;4.10;;
18190;SDS011;47004;51.366;12.348;2024-03-17T02:12:54;7.17;;;3.87;;
18190;SDS011;47004;51.366;12.348;2024-03-17T02:14:55;8.17;;;3.73;;
18190;SDS011;47004;51.366;12.348;2024-03-17T02:16:59;8.50;;;3.47;;
18190;SDS011;47004;51.366;12.348;2024-03-17T02:19:00;9.57;;;4.23;;
18190;SDS011;47004;51.366;12.348;2024-03-17T02:21:04;8.03;;;3.60;;
18190;SDS011;47004;51.366;12.348;2024-03-17T02:23:07;10.30;;;4.03;;
18190;SDS011;47004;51.366;12.348;2024-03-17T02:25:09;7.20;;;3.47;;
18190;SDS011;47004;51.366;12.348;2024-03-17T02:27:10;7.30;;;3.40;;
18190;SDS011;47004;51.366;12.348;2024-03-17T02:29:13;7.30;;;3.37;;
18190;SDS011;47004;51.366;12.348;2024-03-17T02:31:14;6.77;;;3.70;;
18190;SDS011;47004;51.366;12.348;2024-03-17T02:33:17;5.37;;;3.43;;
18190;SDS011;47004;51.366;12.348;2024-03-17T02:35:20;7.80;;;3.40;;
18190;SDS011;47004;51.366;12.348;2024-03-17T02:37:22;9.07;;;3.73;;
18190;SDS011;47004;51.366;12.348;2024-03-17T02:39:25;6.57;;;3.80;;
18190;SDS011;47004;51.366;12.348;2024-03-17T02:41:34;6.20;;;3.57;;
18190;SDS011;47004;51.366;12.348;2024-03-17T02:43:36;7.50;;;3.87;;
18190;SDS011;47004;51.366;12.348;2024-03-17T02:45:37;7.30;;;3.53;;
18190;SDS011;47004;51.366;12.348;2024-03-17T02:47:39;11.00;;;3.37;;
18190;SDS011;47004;51.366;12.348;2024-03-17T02:49:41;10.40;;;3.90;;
18190;SDS011;47004;51.366;12.348;2024-03-17T02:51:44;10.23;;;4.17;;
18190;SDS011;47004;51.366;12.348;2024-03-17T02:53:45;7.27;;;4.03;;
18190;SDS011;47004;51.366;12.348;2024-03-17T02:55:50;6.67;;;3.60;;
18190;SDS011;47004;51.366;12.348;2024-03-17T02:57:51;8.53;;;3.57;;
18190;SDS011;47004;51.366;12.348;2024-03-17T02:59:56;10.37;;;3.70;;
18190;SDS011;47004;51.366;12.348;2024-03-17T03:01:57;9.47;;;3.30;;
18190;SDS011;47004;51.366;12.348;2024-03-17T03:03:59;7.57;;;3.87;;
18190;SDS011;47004;51.366;12.348;2024-03-17T03:06:01;11.07;;;3.67;;
18190;SDS011;47004;51.366;12.348;2024-03-17T03:08:07;7.23;;;3.80;;
18190;SDS011;47004;51.366;12.348;2024-03-17T03:10:09;7.57;;;3.70;;
18190;SDS011;47004;51.366;12.348;2024-03-17T03:12:13;13.13;;;4.17;;
18190;SDS011;47004;51.366;12.348;2024-03-17T03:14:15;7.00;;;3.67;;
18190;SDS011;47004;51.366;12.348;2024-03-17T03:16:17;9.93;;;3.77;;
18190;SDS011;47004;51.366;12.348;2024-03-17T03:18:18;8.80;;;3.83;;
18190;SDS011;47004;51.366;12.348;2024-03-17T03:20:20;8.03;;;3.93;;
18190;SDS011;47004;51.366;12.348;2024-03-17T03:22:22;7.47;;;4.00;;
18190;SDS011;47004;51.366;12.348;2024-03-17T03:24:24;11.07;;;4.13;;
18190;SDS011;47004;51.366;12.348;2024-03-17T03:26:26;7.07;;;3.77;;
18190;SDS011;47004;51.366;12.348;2024-03-17T03:28:30;12.63;;;3.97;;
18190;SDS011;47004;51.366;12.348;2024-03-17T03:30:35;8.63;;;3.80;;
18190;SDS011;47004;51.366;12.348;2024-03-17T03:32:37;11.07;;;4.13;;
18190;SDS011;47004;51.366;12.348;2024-03-17T03:34:42;10.67;;;3.83;;
18190;SDS011;47004;51.366;12.348;2024-03-17T03:36:44;9.20;;;3.63;;
18190;SDS011;47004;51.366;12.348;2024-03-17T03:38:49;10.23;;;3.90;;
18190;SDS011;47004;51.366;12.348;2024-03-17T03:40:50;7.00;;;3.40;;
18190;SDS011;47004;51.366;12.348;2024-03-17T03:42:53;11.23;;;3.70;;
18190;SDS011;47004;51.366;12.348;2024-03-17T03:44:56;6.67;;;3.47;;
18190;SDS011;47004;51.366;12.348;2024-03-17T03:46:58;12.33;;;3.73;;
18190;SDS011;47004;51.366;12.348;2024-03-17T03:49:01;9.53;;;4.03;;
18190;SDS011;47004;51.366;12.348;2024-03-17T03:51:04;7.33;;;3.50;;
18190;SDS011;47004;51.366;12.348;2024-03-17T03:53:09;12.37;;;3.93;;
18190;SDS011;47004;51.366;12.348;2024-03-17T03:55:11;7.57;;;3.73;;
18190;SDS011;47004;51.366;12.348;2024-03-17T03:57:15;7.37;;;3.80;;
18190;SDS011;47004;51.366;12.348;2024-03-17T03:59:17;8.43;;;3.43;;
18190;SDS011;47004;51.366;12.348;2024-03-17T04:01:22;10.93;;;4.00;;
18190;SDS011;47004;51.366;12.348;2024-03-17T04:03:27;9.63;;;3.60;;
18190;SDS011;47004;51.366;12.348;2024-03-17T04:05:29;7.20;;;3.30;;
18190;SDS011;47004;51.366;12.348;2024-03-17T04:07:32;7.20;;;3.63;;
18190;SDS011;47004;51.366;12.348;2024-03-17T04:09:33;6.10;;;3.20;;
18190;SDS011;47004;51.366;12.348;2024-03-17T04:11:35;6.80;;;3.57;;
18190;SDS011;47004;51.366;12.348;2024-03-17T04:13:37;6.57;;;3.80;;
18190;SDS011;47004;51.366;12.348;2024-03-17T04:15:39;8.07;;;3.43;;
18190;SDS011;47004;51.366;12.348;2024-03-17T04:17:42;7.30;;;3.80;;
18190;SDS011;47004;51.366;12.348;2024-03-17T04:19:44;8.97;;;3.50;;
18190;SDS011;47004;51.366;12.348;2024-03-17T04:21:49;8.03;;;3.37;;
18190;SDS011;47004;51.366;12.348;2024-03-17T04:23:50;6.40;;;3.10;;
18190;SDS011;47004;51.366;12.348;2024-03-17T04:25:52;4.77;;;2.90;;
18190;SDS011;47004;51.366;12.348;2024-03-17T04:27:55;5.23;;;3.07;;
18190;SDS011;47004;51.366;12.348;2024-03-17T04:30:02;6.93;;;3.27;;
18190;SDS011;47004;51.366;12.348;2024-03-17T04:32:06;5.67;;;3.50;;
18190;SDS011;47004;51.366;12.348;2024-03-17T04:34:11;5.67;;;3.20;;
18190;SDS011;47004;51.366;12.348;2024-03-17T04:36:13;5.57;;;3.10;;
18190;SDS011;47004;51.366;12.348;2024-03-17T04:38:15;9.30;;;3.37;;
18190;SDS011;47004;51.366;12.348;2024-03-17T04:40:22;7.80;;;3.30;;
18190;SDS011;47004;51.366;12.348;2024-03-17T04:42:24;7.77;;;3.40;;
18190;SDS011;47004;51.366;12.348;2024-03-17T04:44:26;8.97;;;2.93;;
18190;SDS011;47004;51.366;12.348;2024-03-17T04:46:28;6.43;;;3.50;;
18190;SDS011;47004;51.366;12.348;2024-03-17T04:48:32;6.17;;;3.20;;
18190;SDS011;47004;51.366;12.348;2024-03-17T04:50:36;5.33;;;3.03;;
18190;SDS011;47004;51.366;12.348;2024-03-17T04:52:38;8.23;;;3.37;;
18190;SDS011;47004;51.366;12.348;2024-03-17T04:54:41;5.00;;;3.00;;
18190;SDS011;47004;51.366;12.348;2024-03-17T04:56:43;8.03;;;3.43;;
18190;SDS011;47004;51.366;12.348;2024-03-17T04:58:45;8.10;;;2.97;;
18190;SDS011;47004;51.366;12.348;2024-03-17T05:00:47;9.53;;;3.40;;
18190;SDS011;47004;51.366;12.348;2024-03-17T05:02:47;5.90;;;3.40;;
18190;SDS011;47004;51.366;12.348;2024-03-17T05:04:49;6.63;;;3.10;;
18190;SDS011;47004;51.366;12.348;2024-03-17T05:06:53;5.40;;;3.17;;
18190;SDS011;47004;51.366;12.348;2024-03-17T05:08:55;6.47;;;3.03;;
18190;SDS011;47004;51.366;12.348;2024-03-17T05:10:57;6.53;;;3.30;;
18190;SDS011;47004;51.366;12.348;2024-03-17T05:13:04;8.17;;;3.23;;
18190;SDS011;47004;51.366;12.348;2024-03-17T05:15:07;7.43;;;3.63;;
18190;SDS011;47004;51.366;12.348;2024-03-17T05:17:10;7.63;;;3.53;;
18190;SDS011;47004;51.366;12.348;2024-03-17T05:19:12;5.73;;;3.27;;
18190;SDS011;47004;51.366;12.348;2024-03-17T05:21:13;6.87;;;3.33;;
18190;SDS011;47004;51.366;12.348;2024-03-17T05:23:19;8.60;;;3.67;;
18190;SDS011;47004;51.366;12.348;2024-03-17T05:25:20;6.67;;;3.70;;
18190;SDS011;47004;51.366;12.348;2024-03-17T05:27:22;8.03;;;3.30;;
18190;SDS011;47004;51.366;12.348;2024-03-17T05:29:24;5.93;;;3.30;;
18190;SDS011;47004;51.366;12.348;2024-03-17T05:31:26;8.77;;;3.90;;
18190;SDS011;47004;51.366;12.348;2024-03-17T05:33:28;7.93;;;3.43;;
18190;SDS011;47004;51.366;12.348;2024-03-17T05:35:30;9.83;;;3.73;;
18190;SDS011;47004;51.366;12.348;2024-03-17T05:37:32;9.60;;;3.83;;
18190;SDS011;47004;51.366;12.348;2024-03-17T05:39:35;10.67;;;3.60;;
18190;SDS011;47004;51.366;12.348;2024-03-17T05:41:37;7.10;;;3.43;;
18190;SDS011;47004;51.366;12.348;2024-03-17T05:43:38;8.47;;;3.53;;
18190;SDS011;47004;51.366;12.348;2024-03-17T05:45:40;6.83;;;3.30;;
18190;SDS011;47004;51.366;12.348;2024-03-17T05:47:44;6.63;;;3.00;;
18190;SDS011;47004;51.366;12.348;2024-03-17T05:49:44;9.97;;;4.00;;
18190;SDS011;47004;51.366;12.348;2024-03-17T05:51:46;6.90;;;3.63;;
18190;SDS011;47004;51.366;12.348;2024-03-17T05:53:49;5.27;;;3.10;;
18190;SDS011;47004;51.366;12.348;2024-03-17T05:55:52;8.90;;;3.50;;
18190;SDS011;47004;51.366;12.348;2024-03-17T05:57:55;8.70;;;3.77;;
18190;SDS011;47004;51.366;12.348;2024-03-17T05:59:57;7.90;;;3.53;;
18190;SDS011;47004;51.366;12.348;2024-03-17T06:01:59;7.03;;;3.10;;
18190;SDS011;47004;51.366;12.348;2024-03-17T06:04:01;9.13;;;4.07;;
18190;SDS011;47004;51.366;12.348;2024-03-17T06:06:05;7.07;;;3.20;;
18190;SDS011;47004;51.366;12.348;2024-03-17T06:08:09;5.93;;;3.23;;
18190;SDS011;47004;51.366;12.348;2024-03-17T06:10:11;6.30;;;3.33;;
18190;SDS011;47004;51.366;12.348;2024-03-17T06:12:14;5.20;;;3.27;;
18190;SDS011;47004;51.366;12.348;2024-03-17T06:14:16;8.63;;;3.30;;
18190;SDS011;47004;51.366;12.348;2024-03-17T06:16:18;8.50;;;3.17;;
18190;SDS011;47004;51.366;12.348;2024-03-17T06:18:20;6.97;;;3.50;;
18190;SDS011;47004;51.366;12.348;2024-03-17T06:20:24;10.03;;;3.47;;
18190;SDS011;47004;51.366;12.348;2024-03-17T06:22:27;6.07;;;3.20;;
18190;SDS011;47004;51.366;12.348;2024-03-17T06:24:29;8.23;;;3.40;;
18190;SDS011;47004;51.366;12.348;2024-03-17T06:26:31;6.07;;;3.37;;
18190;SDS011;47004;51.366;12.348;2024-03-17T06:28:35;6.13;;;3.73;;
18190;SDS011;47004;51.366;12.348;2024-03-17T06:30:37;8.03;;;3.80;;
18190;SDS011;47004;51.366;12.348;2024-03-17T06:32:39;6.40;;;3.50;;
18190;SDS011;47004;51.366;12.348;2024-03-17T06:34:45;7.87;;;3.73;;
18190;SDS011;47004;51.366;12.348;2024-03-17T06:36:47;8.03;;;3.60;;
18190;SDS011;47004;51.366;12.348;2024-03-17T06:38:49;7.27;;;3.50;;
18190;SDS011;47004;51.366;12.348;2024-03-17T06:40:52;9.60;;;4.03;;
18190;SDS011;47004;51.366;12.348;2024-03-17T06:42:53;9.07;;;3.83;;
18190;SDS011;47004;51.366;12.348;2024-03-17T06:44:56;7.20;;;3.70;;
18190;SDS011;47004;51.366;12.348;2024-03-17T06:46:58;8.63;;;3.83;;
18190;SDS011;47004;51.366;12.348;2024-03-17T06:49:00;10.27;;;4.30;;
18190;SDS011;47004;51.366;12.348;2024-03-17T06:51:01;7.40;;;4.43;;
18190;SDS011;47004;51.366;12.348;2024-03-17T06:53:03;6.00;;;3.60;;
18190;SDS011;47004;51.366;12.348;2024-03-17T06:55:05;6.57;;;3.50;;
18190;SDS011;47004;51.366;12.348;2024-03-17T06:57:07;7.53;;;3.97;;
18190;SDS011;47004;51.366;12.348;2024-03-17T06:59:09;8.60;;;4.17;;
18190;SDS011;47004;51.366;12.348;2024-03-17T07:01:13;8.70;;;4.17;;
18190;SDS011;47004;51.366;12.348;2024-03-17T07:03:15;9.03;;;4.27;;
18190;SDS011;47004;51.366;12.348;2024-03-17T07:05:16;9.03;;;3.63;;
18190;SDS011;47004;51.366;12.348;2024-03-17T07:07:18;6.70;;;3.70;;
18190;SDS011;47004;51.366;12.348;2024-03-17T07:09:23;6.13;;;3.50;;
18190;SDS011;47004;51.366;12.348;2024-03-17T07:11:25;11.03;;;4.03;;
18190;SDS011;47004;51.366;12.348;2024-03-17T07:13:27;10.73;;;4.23;;
18190;SDS011;47004;51.366;12.348;2024-03-17T07:15:32;8.40;;;3.97;;
18190;SDS011;47004;51.366;12.348;2024-03-17T07:17:36;7.17;;;3.27;;
18190;SDS011;47004;51.366;12.348;2024-03-17T07:19:38;9.63;;;4.17;;
18190;SDS011;47004;51.366;12.348;2024-03-17T07:21:40;7.87;;;4.33;;
18190;SDS011;47004;51.366;12.348;2024-03-17T07:23:42;13.13;;;3.87;;
18190;SDS011;47004;51.366;12.348;2024-03-17T07:25:50;8.33;;;4.20;;
18190;SDS011;47004;51.366;12.348;2024-03-17T07:27:52;7.33;;;3.63;;
18190;SDS011;47004;51.366;12.348;2024-03-17T07:29:57;7.77;;;3.60;;
18190;SDS011;47004;51.366;12.348;2024-03-17T07:32:01;8.23;;;3.80;;
18190;SDS011;47004;51.366;12.348;2024-03-17T07:34:06;13.97;;;4.33;;
18190;SDS011;47004;51.366;12.348;2024-03-17T07:36:09;9.10;;;4.00;;
18190;SDS011;47004;51.366;12.348;2024-03-17T07:38:11;8.50;;;3.63;;
18190;SDS011;47004;51.366;12.348;2024-03-17T07:40:12;8.90;;;3.67;;
18190;SDS011;47004;51.366;12.348;2024-03-17T07:42:15;6.50;;;3.47;;
18190;SDS011;47004;51.366;12.348;2024-03-17T07:44:17;6.73;;;3.20;;
18190;SDS011;47004;51.366;12.348;2024-03-17T07:46:20;6.37;;;3.20;;
18190;SDS011;47004;51.366;12.348;2024-03-17T07:48:23;6.53;;;3.27;;
18190;SDS011;47004;51.366;12.348;2024-03-17T07:50:26;9.60;;;3.30;;
18190;SDS011;47004;51.366;12.348;2024-03-17T07:52:27;8.13;;;3.90;;
18190;SDS011;47004;51.366;12.348;2024-03-17T07:54:29;8.17;;;3.77;;
18190;SDS011;47004;51.366;12.348;2024-03-17T07:56:31;5.73;;;3.20;;
18190;SDS011;47004;51.366;12.348;2024-03-17T07:58:33;7.10;;;3.17;;
18190;SDS011;47004;51.366;12.348;2024-03-17T08:00:34;6.13;;;3.13;;
18190;SDS011;47004;51.366;12.348;2024-03-17T08:02:37;6.70;;;3.33;;
18190;SDS011;47004;51.366;12.348;2024-03-17T08:04:39;10.87;;;4.60;;
18190;SDS011;47004;51.366;12.348;2024-03-17T08:06:44;9.13;;;3.47;;
18190;SDS011;47004;51.366;12.348;2024-03-17T08:08:46;6.63;;;3.43;;
18190;SDS011;47004;51.366;12.348;2024-03-17T08:10:49;6.83;;;3.20;;
18190;SDS011;47004;51.366;12.348;2024-03-17T08:12:50;10.90;;;3.80;;
18190;SDS011;47004;51.366;12.348;2024-03-17T08:14:52;11.83;;;3.53;;
18190;SDS011;47004;51.366;12.348;2024-03-17T08:16:53;6.97;;;3.30;;
18190;SDS011;47004;51.366;12.348;2024-03-17T08:18:57;11.57;;;4.30;;
18190;SDS011;47004;51.366;12.348;2024-03-17T08:20:59;9.40;;;3.57;;
18190;SDS011;47004;51.366;12.348;2024-03-17T08:23:05;10.60;;;3.30;;
18190;SDS011;47004;51.366;12.348;2024-03-17T08:25:08;9.67;;;3.50;;
18190;SDS011;47004;51.366;12.348;2024-03-17T08:27:10;14.07;;;3.57;;
18190;SDS011;47004;51.366;12.348;2024-03-17T08:29:11;8.17;;;3.30;;
18190;SDS011;47004;51.366;12.348;2024-03-17T08:31:13;7.53;;;3.07;;
18190;SDS011;47004;51.366;12.348;2024-03-17T08:33:16;7.83;;;3.23;;
18190;SDS011;47004;51.366;12.348;2024-03-17T08:35:18;10.97;;;3.23;;
18190;SDS011;47004;51.366;12.348;2024-03-17T08:37:20;9.80;;;2.93;;
18190;SDS011;47004;51.366;12.348;2024-03-17T08:39:27;10.73;;;2.83;;
18190;SDS011;47004;51.366;12.348;2024-03-17T08:41:28;8.50;;;3.40;;
18190;SDS011;47004;51.366;12.348;2024-03-17T08:43:30;12.33;;;3.53;;
18190;SDS011;47004;51.366;12.348;2024-03-17T08:45:32;9.10;;;3.07;;
18190;SDS011;47004;51.366;12.348;2024-03-17T08:47:43;7.83;;;2.90;;
18190;SDS011;47004;51.366;12.348;2024-03-17T08:49:45;5.83;;;3.00;;
18190;SDS011;47004;51.366;12.348;2024-03-17T08:51:47;10.87;;;3.23;;
18190;SDS011;47004;51.366;12.348;2024-03-17T08:53:48;11.47;;;3.50;;
18190;SDS011;47004;51.366;12.348;2024-03-17T08:55:51;13.43;;;3.50;;
18190;SDS011;47004;51.366;12.348;2024-03-17T08:57:53;8.80;;;3.20;;
18190;SDS011;47004;51.366;12.348;2024-03-17T08:59:55;8.70;;;3.40;;
18190;SDS011;47004;51.366;12.348;2024-03-17T09:01:57;8.30;;;2.83;;
18190;SDS011;47004;51.366;12.348;2024-03-17T09:03:59;8.50;;;3.10;;
18190;SDS011;47004;51.366;12.348;2024-03-17T09:06:13;9.37;;;3.13;;
18190;SDS011;47004;51.366;12.348;2024-03-17T09:08:20;7.30;;;2.93;;
18190;SDS011;47004;51.366;12.348;2024-03-17T09:10:24;10.90;;;3.20;;
18190;SDS011;47004;51.366;12.348;2024-03-17T09:12:27;14.77;;;3.57;;
18190;SDS011;47004;51.366;12.348;2024-03-17T09:14:29;6.53;;;2.93;;
18190;SDS011;47004;51.366;12.348;2024-03-17T09:16:34;10.10;;;3.40;;
18190;SDS011;47004;51.366;12.348;2024-03-17T09:18:36;14.33;;;3.07;;
18190;SDS011;47004;51.366;12.348;2024-03-17T09:20:43;9.50;;;2.73;;
18190;SDS011;47004;51.366;12.348;2024-03-17T09:22:46;11.40;;;2.90;;
18190;SDS011;47004;51.366;12.348;2024-03-17T09:24:48;7.80;;;2.80;;
18190;SDS011;47004;51.366;12.348;2024-03-17T09:26:49;9.13;;;2.63;;
18190;SDS011;47004;51.366;12.348;2024-03-17T09:28:52;11.07;;;3.07;;
18190;SDS011;47004;51.366;12.348;2024-03-17T09:30:57;5.63;;;2.87;;
18190;SDS011;47004;51.366;12.348;2024-03-17T09:32:59;8.87;;;2.93;;
18190;SDS011;47004;51.366;12.348;2024-03-17T09:35:01;7.17;;;2.97;;
18190;SDS011;47004;51.366;12.348;2024-03-17T09:37:05;10.00;;;3.30;;
18190;SDS011;47004;51.366;12.348;2024-03-17T09:39:07;10.27;;;3.10;;
18190;SDS011;47004;51.366;12.348;2024-03-17T09:41:10;7.57;;;2.73;;
18190;SDS011;47004;51.366;12.348;2024-03-17T09:43:22;7.90;;;2.60;;
18190;SDS011;47004;51.366;12.348;2024-03-17T09:45:26;8.43;;;2.70;;
18190;SDS011;47004;51.366;12.348;2024-03-17T09:47:29;11.47;;;3.30;;
18190;SDS011;47004;51.366;12.348;2024-03-17T09:49:31;10.00;;;2.87;;
18190;SDS011;47004;51.366;12.348;2024-03-17T09:51:35;9.43;;;2.90;;
18190;SDS011;47004;51.366;12.348;2024-03-17T09:53:41;11.63;;;3.10;;
18190;SDS011;47004;51.366;12.348;2024-03-17T09:55:47;7.60;;;3.10;;
18190;SDS011;47004;51.366;12.348;2024-03-17T09:57:50;7.23;;;2.80;;
18190;SDS011;47004;51.366;12.348;2024-03-17T09:59:53;8.50;;;2.70;;
18190;SDS011;47004;51.366;12.348;2024-03-17T10:01:57;7.90;;;2.70;;
18190;SDS011;47004;51.366;12.348;2024-03-17T10:03:59;6.20;;;2.67;;
18190;SDS011;47004;51.366;12.348;2024-03-17T10:06:05;11.87;;;2.50;;
18190;SDS011;47004;51.366;12.348;2024-03-17T10:08:07;7.70;;;2.67;;
18190;SDS011;47004;51.366;12.348;2024-03-17T10:10:22;5.87;;;2.10;;
18190;SDS011;47004;51.366;12.348;2024-03-17T10:12:25;10.87;;;2.50;;
18190;SDS011;47004;51.366;12.348;2024-03-17T10:14:26;9.10;;;2.70;;
18190;SDS011;47004;51.366;12.348;2024-03-17T10:16:28;7.50;;;2.70;;
18190;SDS011;47004;51.366;12.348;2024-03-17T10:18:32;8.43;;;2.60;;
18190;SDS011;47004;51.366;12.348;2024-03-17T10:20:34;9.80;;;2.87;;
18190;SDS011;47004;51.366;12.348;2024-03-17T10:22:36;7.40;;;2.50;;
18190;SDS011;47004;51.366;12.348;2024-03-17T10:24:37;6.97;;;2.73;;
18190;SDS011;47004;51.366;12.348;2024-03-17T10:26:42;8.50;;;2.73;;
18190;SDS011;47004;51.366;12.348;2024-03-17T10:28:44;8.73;;;2.60;;
18190;SDS011;47004;51.366;12.348;2024-03-17T10:30:56;11.63;;;2.97;;
18190;SDS011;47004;51.366;12.348;2024-03-17T10:32:59;6.17;;;2.60;;
18190;SDS011;47004;51.366;12.348;2024-03-17T10:35:02;9.83;;;2.80;;
18190;SDS011;47004;51.366;12.348;2024-03-17T10:37:08;6.83;;;2.40;;
18190;SDS011;47004;51.366;12.348;2024-03-17T10:39:18;8.10;;;2.60;;
18190;SDS011;47004;51.366;12.348;2024-03-17T10:41:28;8.97;;;2.67;;
18190;SDS011;47004;51.366;12.348;2024-03-17T10:43:33;9.10;;;2.80;;
18190;SDS011;47004;51.366;12.348;2024-03-17T10:45:37;8.33;;;2.93;;
18190;SDS011;47004;51.366;12.348;2024-03-17T10:47:42;7.80;;;2.20;;
18190;SDS011;47004;51.366;12.348;2024-03-17T10:49:49;6.07;;;2.60;;
18190;SDS011;47004;51.366;12.348;2024-03-17T10:51:55;5.57;;;2.40;;
18190;SDS011;47004;51.366;12.348;2024-03-17T10:53:59;8.60;;;2.90;;
18190;SDS011;47004;51.366;12.348;2024-03-17T10:56:04;8.63;;;2.80;;
18190;SDS011;47004;51.366;12.348;2024-03-17T10:58:11;6.20;;;2.53;;
18190;SDS011;47004;51.366;12.348;2024-03-17T11:00:24;5.73;;;2.10;;
18190;SDS011;47004;51.366;12.348;2024-03-17T11:02:31;9.73;;;2.73;;
18190;SDS011;47004;51.366;12.348;2024-03-17T11:04:35;4.67;;;2.30;;
18190;SDS011;47004;51.366;12.348;2024-03-17T11:06:37;9.67;;;3.23;;
18190;SDS011;47004;51.366;12.348;2024-03-17T11:08:41;8.10;;;2.90;;
18190;SDS011;47004;51.366;12.348;2024-03-17T11:10:51;10.77;;;3.10;;
18190;SDS011;47004;51.366;12.348;2024-03-17T11:12:55;12.63;;;3.47;;
18190;SDS011;47004;51.366;12.348;2024-03-17T11:17:34;6.93;;;2.97;;
18190;SDS011;47004;51.366;12.348;2024-03-17T11:19:36;8.43;;;2.90;;
18190;SDS011;47004;51.366;12.348;2024-03-17T11:21:38;9.87;;;3.83;;
18190;SDS011;47004;51.366;12.348;2024-03-17T11:23:41;11.23;;;2.93;;
18190;SDS011;47004;51.366;12.348;2024-03-17T11:25:44;7.43;;;3.13;;
18190;SDS011;47004;51.366;12.348;2024-03-17T11:27:52;9.47;;;3.23;;
18190;SDS011;47004;51.366;12.348;2024-03-17T11:29:55;5.53;;;2.87;;
18190;SDS011;47004;51.366;12.348;2024-03-17T11:31:57;8.10;;;2.57;;
18190;SDS011;47004;51.366;12.348;2024-03-17T11:33:58;6.97;;;2.80;;
18190;SDS011;47004;51.366;12.348;2024-03-17T11:40:59;8.47;;;3.03;;
18190;SDS011;47004;51.366;12.348;2024-03-17T11:43:40;8.10;;;3.20;;
18190;SDS011;47004;51.366;12.348;2024-03-17T11:45:43;5.83;;;2.83;;
18190;SDS011;47004;51.366;12.348;2024-03-17T11:47:54;7.37;;;2.90;;
18190;SDS011;47004;51.366;12.348;2024-03-17T11:50:01;10.07;;;3.47;;
18190;SDS011;47004;51.366;12.348;2024-03-17T11:52:05;7.33;;;2.70;;
18190;SDS011;47004;51.366;12.348;2024-03-17T11:54:14;6.47;;;2.50;;
18190;SDS011;47004;51.366;12.348;2024-03-17T11:56:22;10.20;;;2.77;;
18190;SDS011;47004;51.366;12.348;2024-03-17T11:58:26;5.17;;;2.50;;
18190;SDS011;47004;51.366;12.348;2024-03-17T12:00:27;7.53;;;2.63;;
18190;SDS011;47004;51.366;12.348;2024-03-17T12:02:30;6.10;;;2.70;;
18190;SDS011;47004;51.366;12.348;2024-03-17T12:04:32;9.83;;;2.73;;
18190;SDS011;47004;51.366;12.348;2024-03-17T12:06:34;8.93;;;3.13;;
18190;SDS011;47004;51.366;12.348;2024-03-17T12:08:35;6.80;;;2.43;;
18190;SDS011;47004;51.366;12.348;2024-03-17T12:10:38;7.40;;;2.60;;
18190;SDS011;47004;51.366;12.348;2024-03-17T12:12:47;4.37;;;2.33;;
18190;SDS011;47004;51.366;12.348;2024-03-17T12:14:50;9.90;;;2.80;;
18190;SDS011;47004;51.366;12.348;2024-03-17T12:16:51;4.73;;;2.47;;